< < Back
Terminal Aerodrome Forecast


Current Version              Previous Versions:   1  2  3  4  5  6  7  8  9  

Terminal Aerodrome Forecast

510
FTUS44 KHUN 211140
TAFHSV
TAF
KHSV 211140Z 2112/2212 VRB03KT P6SM SCT035
     FM211400 34010KT P6SM FEW035
     FM220000 02005KT P6SM SKC=



Latest METAR

913
SAUS80 KWBC 211600 RRA
MTRHSV
METAR KHSV 211553Z 36003KT 10SM CLR 20/12 A3008 RMK AO2 SLP181
T02000117


USA.gov is the U.S. government's official web portal to all federal, state and local government web resources and services.